sensor_id;sensor_type;location;lat;lon;timestamp;temperature;humidity
35796;DHT22;21916;52.428;13.302;2023-03-11T00:00:43;2.80;99.90
35796;DHT22;21916;52.428;13.302;2023-03-11T00:03:12;2.70;99.90
35796;DHT22;21916;52.428;13.302;2023-03-11T00:05:43;2.70;99.90
35796;DHT22;21916;52.428;13.302;2023-03-11T00:08:15;2.50;99.90
35796;DHT22;21916;52.428;13.302;2023-03-11T00:10:43;2.20;99.90
35796;DHT22;21916;52.428;13.302;2023-03-11T00:13:11;2.10;99.90
35796;DHT22;21916;52.428;13.302;2023-03-11T00:15:40;2.00;99.90
35796;DHT22;21916;52.428;13.302;2023-03-11T00:18:06;1.80;99.90
35796;DHT22;21916;52.428;13.302;2023-03-11T00:20:34;1.80;99.90
35796;DHT22;21916;52.428;13.302;2023-03-11T00:23:02;1.70;99.90
35796;DHT22;21916;52.428;13.302;2023-03-11T00:25:30;1.70;99.90
35796;DHT22;21916;52.428;13.302;2023-03-11T00:27:59;1.60;99.90
35796;DHT22;21916;52.428;13.302;2023-03-11T00:30:33;1.60;99.90
35796;DHT22;21916;52.428;13.302;2023-03-11T00:32:59;1.60;99.90
35796;DHT22;21916;52.428;13.302;2023-03-11T00:35:28;1.60;99.90
35796;DHT22;21916;52.428;13.302;2023-03-11T00:38:00;1.40;99.90
35796;DHT22;21916;52.428;13.302;2023-03-11T00:40:30;1.40;99.90
35796;DHT22;21916;52.428;13.302;2023-03-11T00:42:57;1.30;99.90
35796;DHT22;21916;52.428;13.302;2023-03-11T00:45:23;1.30;99.90
35796;DHT22;21916;52.428;13.302;2023-03-11T00:47:51;1.30;99.90
35796;DHT22;21916;52.428;13.302;2023-03-11T00:50:23;1.20;99.90
35796;DHT22;21916;52.428;13.302;2023-03-11T00:52:51;1.20;99.90
35796;DHT22;21916;52.428;13.302;2023-03-11T00:55:21;1.20;99.90
35796;DHT22;21916;52.428;13.302;2023-03-11T00:57:51;1.20;99.90
35796;DHT22;21916;52.428;13.302;2023-03-11T01:00:18;1.20;99.90
35796;DHT22;21916;52.428;13.302;2023-03-11T01:02:45;1.20;99.90
35796;DHT22;21916;52.428;13.302;2023-03-11T01:05:12;1.20;99.90
35796;DHT22;21916;52.428;13.302;2023-03-11T01:07:39;1.20;99.90
35796;DHT22;21916;52.428;13.302;2023-03-11T01:10:07;1.10;99.90
35796;DHT22;21916;52.428;13.302;2023-03-11T01:12:33;1.10;99.90
35796;DHT22;21916;52.428;13.302;2023-03-11T01:15:01;1.10;99.90
35796;DHT22;21916;52.428;13.302;2023-03-11T01:17:27;1.10;99.90
35796;DHT22;21916;52.428;13.302;2023-03-11T01:19:53;1.10;99.90
35796;DHT22;21916;52.428;13.302;2023-03-11T01:22:20;1.10;99.90
35796;DHT22;21916;52.428;13.302;2023-03-11T01:24:46;1.10;99.90
35796;DHT22;21916;52.428;13.302;2023-03-11T01:27:12;1.10;99.90
35796;DHT22;21916;52.428;13.302;2023-03-11T01:29:38;1.10;99.90
35796;DHT22;21916;52.428;13.302;2023-03-11T01:32:04;1.10;99.90
35796;DHT22;21916;52.428;13.302;2023-03-11T01:34:31;1.10;99.90
35796;DHT22;21916;52.428;13.302;2023-03-11T01:37:02;1.10;99.90
35796;DHT22;21916;52.428;13.302;2023-03-11T01:39:28;1.10;99.90
35796;DHT22;21916;52.428;13.302;2023-03-11T01:41:54;1.00;99.90
35796;DHT22;21916;52.428;13.302;2023-03-11T01:44:21;1.00;99.90
35796;DHT22;21916;52.428;13.302;2023-03-11T01:49:17;1.00;99.90
35796;DHT22;21916;52.428;13.302;2023-03-11T01:51:46;1.00;99.90
35796;DHT22;21916;52.428;13.302;2023-03-11T01:54:20;1.00;99.90
35796;DHT22;21916;52.428;13.302;2023-03-11T01:56:50;1.10;99.90
35796;DHT22;21916;52.428;13.302;2023-03-11T01:59:19;1.00;99.90
35796;DHT22;21916;52.428;13.302;2023-03-11T02:04:39;1.00;99.90
35796;DHT22;21916;52.428;13.302;2023-03-11T02:07:09;1.00;99.90
35796;DHT22;21916;52.428;13.302;2023-03-11T02:09:36;1.00;99.90
35796;DHT22;21916;52.428;13.302;2023-03-11T02:12:04;1.00;99.90
35796;DHT22;21916;52.428;13.302;2023-03-11T02:14:31;1.00;99.90
35796;DHT22;21916;52.428;13.302;2023-03-11T02:16:59;1.00;99.90
35796;DHT22;21916;52.428;13.302;2023-03-11T02:19:57;1.00;99.90
35796;DHT22;21916;52.428;13.302;2023-03-11T02:22:23;1.00;99.90
35796;DHT22;21916;52.428;13.302;2023-03-11T02:27:52;1.00;99.90
35796;DHT22;21916;52.428;13.302;2023-03-11T02:30:25;1.00;99.90
35796;DHT22;21916;52.428;13.302;2023-03-11T02:32:52;1.00;99.90
35796;DHT22;21916;52.428;13.302;2023-03-11T02:35:19;1.00;99.90
35796;DHT22;21916;52.428;13.302;2023-03-11T02:37:46;1.00;99.90
35796;DHT22;21916;52.428;13.302;2023-03-11T02:42:51;1.00;99.90
35796;DHT22;21916;52.428;13.302;2023-03-11T02:45:20;1.00;99.90
35796;DHT22;21916;52.428;13.302;2023-03-11T02:47:48;1.00;99.90
35796;DHT22;21916;52.428;13.302;2023-03-11T02:50:15;1.00;99.90
35796;DHT22;21916;52.428;13.302;2023-03-11T02:52:43;1.00;99.90
35796;DHT22;21916;52.428;13.302;2023-03-11T02:55:10;1.00;99.90
35796;DHT22;21916;52.428;13.302;2023-03-11T02:57:37;1.00;99.90
35796;DHT22;21916;52.428;13.302;2023-03-11T03:00:05;1.00;99.90
35796;DHT22;21916;52.428;13.302;2023-03-11T03:02:41;1.00;99.90
35796;DHT22;21916;52.428;13.302;2023-03-11T03:05:08;1.10;99.90
35796;DHT22;21916;52.428;13.302;2023-03-11T03:07:35;1.00;99.90
35796;DHT22;21916;52.428;13.302;2023-03-11T03:10:02;1.00;99.90
35796;DHT22;21916;52.428;13.302;2023-03-11T03:12:29;1.00;99.90
35796;DHT22;21916;52.428;13.302;2023-03-11T03:14:55;1.00;99.90
35796;DHT22;21916;52.428;13.302;2023-03-11T03:17:23;1.00;99.90
35796;DHT22;21916;52.428;13.302;2023-03-11T03:19:49;1.00;99.90
35796;DHT22;21916;52.428;13.302;2023-03-11T03:22:15;1.00;99.90
35796;DHT22;21916;52.428;13.302;2023-03-11T03:24:41;1.00;99.90
35796;DHT22;21916;52.428;13.302;2023-03-11T03:27:07;1.00;99.90
35796;DHT22;21916;52.428;13.302;2023-03-11T03:29:33;1.00;99.90
35796;DHT22;21916;52.428;13.302;2023-03-11T03:31:59;1.00;99.90
35796;DHT22;21916;52.428;13.302;2023-03-11T03:34:25;0.90;99.90
35796;DHT22;21916;52.428;13.302;2023-03-11T03:36:51;0.90;99.90
35796;DHT22;21916;52.428;13.302;2023-03-11T03:39:17;0.90;99.90
35796;DHT22;21916;52.428;13.302;2023-03-11T03:41:45;0.90;99.90
35796;DHT22;21916;52.428;13.302;2023-03-11T03:44:11;1.00;99.90
35796;DHT22;21916;52.428;13.302;2023-03-11T03:46:37;0.90;99.90
35796;DHT22;21916;52.428;13.302;2023-03-11T03:49:05;0.90;99.90
35796;DHT22;21916;52.428;13.302;2023-03-11T03:51:31;0.90;99.90
35796;DHT22;21916;52.428;13.302;2023-03-11T03:54:09;0.90;99.90
35796;DHT22;21916;52.428;13.302;2023-03-11T03:56:35;0.90;99.90
35796;DHT22;21916;52.428;13.302;2023-03-11T03:59:01;0.90;99.90
35796;DHT22;21916;52.428;13.302;2023-03-11T04:01:34;0.90;99.90
35796;DHT22;21916;52.428;13.302;2023-03-11T04:04:00;0.90;99.90
35796;DHT22;21916;52.428;13.302;2023-03-11T04:06:27;0.90;99.90
35796;DHT22;21916;52.428;13.302;2023-03-11T04:08:57;0.90;99.90
35796;DHT22;21916;52.428;13.302;2023-03-11T04:11:28;0.90;99.90
35796;DHT22;21916;52.428;13.302;2023-03-11T04:13:54;0.90;99.90
35796;DHT22;21916;52.428;13.302;2023-03-11T04:16:21;0.90;99.90
35796;DHT22;21916;52.428;13.302;2023-03-11T04:18:49;0.90;99.90
35796;DHT22;21916;52.428;13.302;2023-03-11T04:21:16;0.90;99.90
35796;DHT22;21916;52.428;13.302;2023-03-11T04:23:43;0.90;99.90
35796;DHT22;21916;52.428;13.302;2023-03-11T04:26:11;0.90;99.90
35796;DHT22;21916;52.428;13.302;2023-03-11T04:28:37;0.90;99.90
35796;DHT22;21916;52.428;13.302;2023-03-11T04:31:03;0.90;99.90
35796;DHT22;21916;52.428;13.302;2023-03-11T04:33:31;0.90;99.90
35796;DHT22;21916;52.428;13.302;2023-03-11T04:35:57;0.90;99.90
35796;DHT22;21916;52.428;13.302;2023-03-11T04:38:24;0.90;99.90
35796;DHT22;21916;52.428;13.302;2023-03-11T04:40:50;0.90;99.90
35796;DHT22;21916;52.428;13.302;2023-03-11T04:43:16;0.90;99.90
35796;DHT22;21916;52.428;13.302;2023-03-11T04:45:43;0.90;99.90
35796;DHT22;21916;52.428;13.302;2023-03-11T04:48:10;0.90;99.90
35796;DHT22;21916;52.428;13.302;2023-03-11T04:50:37;1.00;99.90
35796;DHT22;21916;52.428;13.302;2023-03-11T04:53:03;0.90;99.90
35796;DHT22;21916;52.428;13.302;2023-03-11T04:55:29;0.90;99.90
35796;DHT22;21916;52.428;13.302;2023-03-11T04:57:55;1.00;99.90
35796;DHT22;21916;52.428;13.302;2023-03-11T05:00:22;0.90;99.90
35796;DHT22;21916;52.428;13.302;2023-03-11T05:02:56;0.90;99.90
35796;DHT22;21916;52.428;13.302;2023-03-11T05:05:22;0.90;99.90
35796;DHT22;21916;52.428;13.302;2023-03-11T05:07:48;1.00;99.90
35796;DHT22;21916;52.428;13.302;2023-03-11T05:10:14;0.90;99.90
35796;DHT22;21916;52.428;13.302;2023-03-11T05:12:50;0.90;99.90
35796;DHT22;21916;52.428;13.302;2023-03-11T05:15:17;0.90;99.90
35796;DHT22;21916;52.428;13.302;2023-03-11T05:17:44;0.90;99.90
35796;DHT22;21916;52.428;13.302;2023-03-11T05:20:11;1.00;99.90
35796;DHT22;21916;52.428;13.302;2023-03-11T05:22:37;0.90;99.90
35796;DHT22;21916;52.428;13.302;2023-03-11T05:25:04;1.00;99.90
35796;DHT22;21916;52.428;13.302;2023-03-11T05:27:30;1.00;99.90
35796;DHT22;21916;52.428;13.302;2023-03-11T05:29:56;0.90;99.90
35796;DHT22;21916;52.428;13.302;2023-03-11T05:32:24;1.00;99.90
35796;DHT22;21916;52.428;13.302;2023-03-11T05:34:51;1.00;99.90
35796;DHT22;21916;52.428;13.302;2023-03-11T05:37:18;1.00;99.90
35796;DHT22;21916;52.428;13.302;2023-03-11T05:39:46;1.00;99.90
35796;DHT22;21916;52.428;13.302;2023-03-11T05:42:13;1.00;99.90
35796;DHT22;21916;52.428;13.302;2023-03-11T05:44:39;1.00;99.90
35796;DHT22;21916;52.428;13.302;2023-03-11T05:47:06;1.00;99.90
35796;DHT22;21916;52.428;13.302;2023-03-11T05:49:33;1.00;99.90
35796;DHT22;21916;52.428;13.302;2023-03-11T05:51:59;1.00;99.90
35796;DHT22;21916;52.428;13.302;2023-03-11T05:54:27;1.00;99.90
35796;DHT22;21916;52.428;13.302;2023-03-11T05:56:53;1.00;99.90
35796;DHT22;21916;52.428;13.302;2023-03-11T05:59:20;1.00;99.90
35796;DHT22;21916;52.428;13.302;2023-03-11T06:01:53;1.00;99.90
35796;DHT22;21916;52.428;13.302;2023-03-11T06:04:19;1.00;99.90
35796;DHT22;21916;52.428;13.302;2023-03-11T06:06:45;1.00;99.90
35796;DHT22;21916;52.428;13.302;2023-03-11T06:09:13;1.00;99.90
35796;DHT22;21916;52.428;13.302;2023-03-11T06:11:40;1.00;99.90
35796;DHT22;21916;52.428;13.302;2023-03-11T06:14:06;1.00;99.90
35796;DHT22;21916;52.428;13.302;2023-03-11T06:16:32;1.00;99.90
35796;DHT22;21916;52.428;13.302;2023-03-11T06:19:00;1.00;99.90
35796;DHT22;21916;52.428;13.302;2023-03-11T06:21:30;1.00;99.90
35796;DHT22;21916;52.428;13.302;2023-03-11T06:23:56;1.00;99.90
35796;DHT22;21916;52.428;13.302;2023-03-11T06:26:23;1.00;99.90
35796;DHT22;21916;52.428;13.302;2023-03-11T06:28:51;1.00;99.90
35796;DHT22;21916;52.428;13.302;2023-03-11T06:31:27;1.00;99.90
35796;DHT22;21916;52.428;13.302;2023-03-11T06:33:59;0.90;99.90
35796;DHT22;21916;52.428;13.302;2023-03-11T06:36:26;0.90;99.90
35796;DHT22;21916;52.428;13.302;2023-03-11T06:38:52;1.00;99.90
35796;DHT22;21916;52.428;13.302;2023-03-11T06:41:20;1.00;99.90
35796;DHT22;21916;52.428;13.302;2023-03-11T06:43:46;1.00;99.90
35796;DHT22;21916;52.428;13.302;2023-03-11T06:46:16;1.00;99.90
35796;DHT22;21916;52.428;13.302;2023-03-11T06:48:44;1.00;99.90
35796;DHT22;21916;52.428;13.302;2023-03-11T06:51:11;1.00;99.90
35796;DHT22;21916;52.428;13.302;2023-03-11T06:53:37;1.00;99.90
35796;DHT22;21916;52.428;13.302;2023-03-11T06:56:09;1.00;99.90
35796;DHT22;21916;52.428;13.302;2023-03-11T06:58:42;1.10;99.90
35796;DHT22;21916;52.428;13.302;2023-03-11T07:01:16;1.10;99.90
35796;DHT22;21916;52.428;13.302;2023-03-11T07:03:44;1.10;99.90
35796;DHT22;21916;52.428;13.302;2023-03-11T07:06:12;1.10;99.90
35796;DHT22;21916;52.428;13.302;2023-03-11T07:08:38;1.10;99.90
35796;DHT22;21916;52.428;13.302;2023-03-11T07:11:14;1.10;99.90
35796;DHT22;21916;52.428;13.302;2023-03-11T07:13:42;1.10;99.90
35796;DHT22;21916;52.428;13.302;2023-03-11T07:16:14;1.10;99.90
35796;DHT22;21916;52.428;13.302;2023-03-11T07:18:42;1.20;99.90
35796;DHT22;21916;52.428;13.302;2023-03-11T07:21:08;1.10;99.90
35796;DHT22;21916;52.428;13.302;2023-03-11T07:23:34;1.10;99.90
35796;DHT22;21916;52.428;13.302;2023-03-11T07:26:01;1.10;99.90
35796;DHT22;21916;52.428;13.302;2023-03-11T07:28:28;1.10;99.90
35796;DHT22;21916;52.428;13.302;2023-03-11T07:30:54;1.10;99.90
35796;DHT22;21916;52.428;13.302;2023-03-11T07:33:21;1.20;99.90
35796;DHT22;21916;52.428;13.302;2023-03-11T07:35:49;1.20;99.90
35796;DHT22;21916;52.428;13.302;2023-03-11T07:38:16;1.20;99.90
35796;DHT22;21916;52.428;13.302;2023-03-11T07:40:42;1.30;99.90
35796;DHT22;21916;52.428;13.302;2023-03-11T07:43:08;1.30;99.90
35796;DHT22;21916;52.428;13.302;2023-03-11T07:45:34;1.30;99.90
35796;DHT22;21916;52.428;13.302;2023-03-11T07:48:00;1.40;99.90
35796;DHT22;21916;52.428;13.302;2023-03-11T07:50:26;1.50;99.90
35796;DHT22;21916;52.428;13.302;2023-03-11T07:52:52;1.60;99.90
35796;DHT22;21916;52.428;13.302;2023-03-11T07:55:18;1.60;99.90
35796;DHT22;21916;52.428;13.302;2023-03-11T07:57:46;1.60;99.90
35796;DHT22;21916;52.428;13.302;2023-03-11T08:00:13;1.60;99.90
35796;DHT22;21916;52.428;13.302;2023-03-11T08:02:39;1.60;99.90
35796;DHT22;21916;52.428;13.302;2023-03-11T08:05:06;1.60;99.90
35796;DHT22;21916;52.428;13.302;2023-03-11T08:07:32;1.50;99.90
35796;DHT22;21916;52.428;13.302;2023-03-11T08:09:58;1.60;99.90
35796;DHT22;21916;52.428;13.302;2023-03-11T08:12:24;1.60;99.90
35796;DHT22;21916;52.428;13.302;2023-03-11T08:14:50;1.60;99.90
35796;DHT22;21916;52.428;13.302;2023-03-11T08:17:16;1.60;99.90
35796;DHT22;21916;52.428;13.302;2023-03-11T08:19:41;1.70;99.90
35796;DHT22;21916;52.428;13.302;2023-03-11T08:22:07;1.60;99.90
35796;DHT22;21916;52.428;13.302;2023-03-11T08:24:33;1.70;99.90
35796;DHT22;21916;52.428;13.302;2023-03-11T08:27:00;1.70;99.90
35796;DHT22;21916;52.428;13.302;2023-03-11T08:29:26;1.80;99.90
35796;DHT22;21916;52.428;13.302;2023-03-11T08:31:52;2.10;99.90
35796;DHT22;21916;52.428;13.302;2023-03-11T08:34:18;1.90;99.90
35796;DHT22;21916;52.428;13.302;2023-03-11T08:36:45;2.00;99.90
35796;DHT22;21916;52.428;13.302;2023-03-11T08:39:11;2.00;99.90
35796;DHT22;21916;52.428;13.302;2023-03-11T08:41:37;1.90;99.90
35796;DHT22;21916;52.428;13.302;2023-03-11T08:44:03;2.00;99.90
35796;DHT22;21916;52.428;13.302;2023-03-11T08:46:37;1.90;99.90
35796;DHT22;21916;52.428;13.302;2023-03-11T08:49:04;1.80;99.90
35796;DHT22;21916;52.428;13.302;2023-03-11T08:51:32;1.70;99.90
35796;DHT22;21916;52.428;13.302;2023-03-11T08:53:59;1.70;99.90
35796;DHT22;21916;52.428;13.302;2023-03-11T08:56:25;1.70;99.90
35796;DHT22;21916;52.428;13.302;2023-03-11T08:58:51;1.70;99.90
35796;DHT22;21916;52.428;13.302;2023-03-11T09:01:17;1.70;99.90
35796;DHT22;21916;52.428;13.302;2023-03-11T09:03:44;1.80;99.90
35796;DHT22;21916;52.428;13.302;2023-03-11T09:06:13;1.80;99.90
35796;DHT22;21916;52.428;13.302;2023-03-11T09:08:40;1.80;99.90
35796;DHT22;21916;52.428;13.302;2023-03-11T09:11:07;1.80;99.90
35796;DHT22;21916;52.428;13.302;2023-03-11T09:13:33;1.90;99.90
35796;DHT22;21916;52.428;13.302;2023-03-11T09:15:59;1.90;99.90
35796;DHT22;21916;52.428;13.302;2023-03-11T09:18:25;1.80;99.90
35796;DHT22;21916;52.428;13.302;2023-03-11T09:20:51;1.80;99.90
35796;DHT22;21916;52.428;13.302;2023-03-11T09:23:22;1.70;99.90
35796;DHT22;21916;52.428;13.302;2023-03-11T09:25:48;1.70;99.90
35796;DHT22;21916;52.428;13.302;2023-03-11T09:28:14;1.80;99.90
35796;DHT22;21916;52.428;13.302;2023-03-11T09:30:40;1.80;99.90
35796;DHT22;21916;52.428;13.302;2023-03-11T09:33:06;1.80;99.90
35796;DHT22;21916;52.428;13.302;2023-03-11T09:35:32;1.80;99.90
35796;DHT22;21916;52.428;13.302;2023-03-11T09:37:58;1.90;99.90
35796;DHT22;21916;52.428;13.302;2023-03-11T09:40:26;2.00;99.90
35796;DHT22;21916;52.428;13.302;2023-03-11T09:45:53;1.90;99.90
35796;DHT22;21916;52.428;13.302;2023-03-11T09:48:31;2.00;99.90
35796;DHT22;21916;52.428;13.302;2023-03-11T09:51:14;2.10;99.90
35796;DHT22;21916;52.428;13.302;2023-03-11T09:53:44;2.10;99.90
35796;DHT22;21916;52.428;13.302;2023-03-11T09:56:19;2.10;99.90
35796;DHT22;21916;52.428;13.302;2023-03-11T10:01:23;2.20;99.90
35796;DHT22;21916;52.428;13.302;2023-03-11T10:03:54;2.10;99.90
35796;DHT22;21916;52.428;13.302;2023-03-11T10:06:23;2.10;99.90
35796;DHT22;21916;52.428;13.302;2023-03-11T10:17:26;1.50;99.90
35796;DHT22;21916;52.428;13.302;2023-03-11T10:25:16;1.40;99.90
35796;DHT22;21916;52.428;13.302;2023-03-11T10:27:54;1.50;99.90
35796;DHT22;21916;52.428;13.302;2023-03-11T10:30:46;1.50;99.90
35796;DHT22;21916;52.428;13.302;2023-03-11T10:33:43;1.40;99.90
35796;DHT22;21916;52.428;13.302;2023-03-11T10:36:14;1.50;99.90
35796;DHT22;21916;52.428;13.302;2023-03-11T10:38:45;1.60;99.90
35796;DHT22;21916;52.428;13.302;2023-03-11T10:44:20;1.70;99.90
35796;DHT22;21916;52.428;13.302;2023-03-11T10:46:48;1.70;99.90
35796;DHT22;21916;52.428;13.302;2023-03-11T10:49:15;1.70;99.90
35796;DHT22;21916;52.428;13.302;2023-03-11T10:51:47;1.80;99.90
35796;DHT22;21916;52.428;13.302;2023-03-11T10:54:34;2.00;99.90
35796;DHT22;21916;52.428;13.302;2023-03-11T10:57:04;2.10;99.90
35796;DHT22;21916;52.428;13.302;2023-03-11T10:59:31;2.20;99.90
35796;DHT22;21916;52.428;13.302;2023-03-11T11:02:00;2.30;99.90
35796;DHT22;21916;52.428;13.302;2023-03-11T11:04:35;2.60;99.90
35796;DHT22;21916;52.428;13.302;2023-03-11T11:09:46;2.90;99.90
35796;DHT22;21916;52.428;13.302;2023-03-11T11:12:15;2.80;99.90
35796;DHT22;21916;52.428;13.302;2023-03-11T11:14:49;2.60;99.90
35796;DHT22;21916;52.428;13.302;2023-03-11T11:17:30;2.60;99.90
35796;DHT22;21916;52.428;13.302;2023-03-11T11:19:58;2.40;99.90
35796;DHT22;21916;52.428;13.302;2023-03-11T11:22:26;2.20;99.90
35796;DHT22;21916;52.428;13.302;2023-03-11T11:24:54;2.20;99.90
35796;DHT22;21916;52.428;13.302;2023-03-11T11:27:26;2.20;99.90
35796;DHT22;21916;52.428;13.302;2023-03-11T11:30:15;2.30;99.90
35796;DHT22;21916;52.428;13.302;2023-03-11T11:32:42;2.20;99.90
35796;DHT22;21916;52.428;13.302;2023-03-11T11:35:13;2.30;99.90
35796;DHT22;21916;52.428;13.302;2023-03-11T11:37:46;2.40;99.90
35796;DHT22;21916;52.428;13.302;2023-03-11T11:42:50;3.00;99.90
35796;DHT22;21916;52.428;13.302;2023-03-11T11:45:36;3.60;99.90
35796;DHT22;21916;52.428;13.302;2023-03-11T11:48:17;4.30;99.90
35796;DHT22;21916;52.428;13.302;2023-03-11T11:50:51;4.60;99.90
35796;DHT22;21916;52.428;13.302;2023-03-11T11:53:27;5.10;99.90
35796;DHT22;21916;52.428;13.302;2023-03-11T11:55:55;4.60;99.90
35796;DHT22;21916;52.428;13.302;2023-03-11T11:58:21;4.70;99.90
35796;DHT22;21916;52.428;13.302;2023-03-11T12:03:38;4.10;99.90
35796;DHT22;21916;52.428;13.302;2023-03-11T12:08:58;4.70;99.90
35796;DHT22;21916;52.428;13.302;2023-03-11T12:11:33;6.00;99.90
35796;DHT22;21916;52.428;13.302;2023-03-11T12:14:46;7.00;99.90
35796;DHT22;21916;52.428;13.302;2023-03-11T12:17:11;7.80;99.90
35796;DHT22;21916;52.428;13.302;2023-03-11T12:19:48;7.70;99.90
35796;DHT22;21916;52.428;13.302;2023-03-11T12:25:15;6.90;99.90
35796;DHT22;21916;52.428;13.302;2023-03-11T12:30:31;4.90;99.90
35796;DHT22;21916;52.428;13.302;2023-03-11T12:33:30;4.80;99.90
35796;DHT22;21916;52.428;13.302;2023-03-11T12:35:58;5.40;99.90
35796;DHT22;21916;52.428;13.302;2023-03-11T12:40:58;4.20;99.90
35796;DHT22;21916;52.428;13.302;2023-03-11T12:45:58;4.30;99.90
35796;DHT22;21916;52.428;13.302;2023-03-11T12:48:35;4.40;99.90
35796;DHT22;21916;52.428;13.302;2023-03-11T12:51:06;5.40;99.90
35796;DHT22;21916;52.428;13.302;2023-03-11T12:53:53;5.90;99.90
35796;DHT22;21916;52.428;13.302;2023-03-11T12:59:15;7.20;99.90
35796;DHT22;21916;52.428;13.302;2023-03-11T13:02:23;5.90;99.90
35796;DHT22;21916;52.428;13.302;2023-03-11T13:07:41;4.60;99.90
35796;DHT22;21916;52.428;13.302;2023-03-11T13:18:23;4.70;99.90
35796;DHT22;21916;52.428;13.302;2023-03-11T13:28:31;4.20;99.90
35796;DHT22;21916;52.428;13.302;2023-03-11T13:33:54;3.80;99.90
35796;DHT22;21916;52.428;13.302;2023-03-11T13:36:48;3.50;99.90
35796;DHT22;21916;52.428;13.302;2023-03-11T13:39:48;3.20;99.90
35796;DHT22;21916;52.428;13.302;2023-03-11T13:43:08;3.00;99.90
35796;DHT22;21916;52.428;13.302;2023-03-11T13:45:37;2.80;99.90
35796;DHT22;21916;52.428;13.302;2023-03-11T13:48:06;3.00;99.90
35796;DHT22;21916;52.428;13.302;2023-03-11T13:50:48;2.80;99.90
35796;DHT22;21916;52.428;13.302;2023-03-11T13:53:20;2.80;99.90
35796;DHT22;21916;52.428;13.302;2023-03-11T13:55:47;2.60;99.90
35796;DHT22;21916;52.428;13.302;2023-03-11T13:58:25;2.60;99.90
35796;DHT22;21916;52.428;13.302;2023-03-11T14:00:59;2.50;99.90
35796;DHT22;21916;52.428;13.302;2023-03-11T14:03:28;2.50;99.90
35796;DHT22;21916;52.428;13.302;2023-03-11T14:06:05;2.50;99.90
35796;DHT22;21916;52.428;13.302;2023-03-11T14:08:36;2.50;99.90
35796;DHT22;21916;52.428;13.302;2023-03-11T14:13:43;4.90;99.90
35796;DHT22;21916;52.428;13.302;2023-03-11T14:16:19;7.00;99.90
35796;DHT22;21916;52.428;13.302;2023-03-11T14:19:03;7.70;99.90
35796;DHT22;21916;52.428;13.302;2023-03-11T14:21:30;7.90;99.90
35796;DHT22;21916;52.428;13.302;2023-03-11T14:23:56;6.70;99.90
35796;DHT22;21916;52.428;13.302;2023-03-11T14:28:57;7.80;99.90
35796;DHT22;21916;52.428;13.302;2023-03-11T14:31:35;7.60;99.90
35796;DHT22;21916;52.428;13.302;2023-03-11T14:34:22;7.40;99.90
35796;DHT22;21916;52.428;13.302;2023-03-11T14:36:55;8.40;99.90
35796;DHT22;21916;52.428;13.302;2023-03-11T14:39:33;8.10;99.80
35796;DHT22;21916;52.428;13.302;2023-03-11T14:42:30;6.80;99.90
35796;DHT22;21916;52.428;13.302;2023-03-11T14:50:19;4.40;99.90
35796;DHT22;21916;52.428;13.302;2023-03-11T14:53:00;4.80;99.90
35796;DHT22;21916;52.428;13.302;2023-03-11T14:55:39;6.10;99.90
35796;DHT22;21916;52.428;13.302;2023-03-11T15:00:59;9.60;98.80
35796;DHT22;21916;52.428;13.302;2023-03-11T15:03:35;10.10;96.20
35796;DHT22;21916;52.428;13.302;2023-03-11T15:06:15;10.10;96.50
35796;DHT22;21916;52.428;13.302;2023-03-11T15:09:09;9.60;95.30
35796;DHT22;21916;52.428;13.302;2023-03-11T15:11:48;9.40;95.10
35796;DHT22;21916;52.428;13.302;2023-03-11T15:14:33;9.00;95.90
35796;DHT22;21916;52.428;13.302;2023-03-11T15:17:21;8.30;95.70
35796;DHT22;21916;52.428;13.302;2023-03-11T15:19:51;8.10;96.10
35796;DHT22;21916;52.428;13.302;2023-03-11T15:24:54;6.90;97.70
35796;DHT22;21916;52.428;13.302;2023-03-11T15:27:33;6.80;98.90
35796;DHT22;21916;52.428;13.302;2023-03-11T15:30:00;7.10;97.10
35796;DHT22;21916;52.428;13.302;2023-03-11T15:32:40;7.10;98.10
35796;DHT22;21916;52.428;13.302;2023-03-11T15:37:32;6.70;99.20
35796;DHT22;21916;52.428;13.302;2023-03-11T15:40:10;7.00;99.20
35796;DHT22;21916;52.428;13.302;2023-03-11T15:42:37;7.10;98.80
35796;DHT22;21916;52.428;13.302;2023-03-11T15:45:16;7.10;98.30
35796;DHT22;21916;52.428;13.302;2023-03-11T15:47:44;7.20;98.20
35796;DHT22;21916;52.428;13.302;2023-03-11T15:50:32;7.70;96.80
35796;DHT22;21916;52.428;13.302;2023-03-11T15:52:58;7.70;96.90
35796;DHT22;21916;52.428;13.302;2023-03-11T15:55:26;7.80;96.70
35796;DHT22;21916;52.428;13.302;2023-03-11T15:58:18;7.80;96.40
35796;DHT22;21916;52.428;13.302;2023-03-11T16:00:52;8.10;95.70
35796;DHT22;21916;52.428;13.302;2023-03-11T16:03:19;7.60;96.10
35796;DHT22;21916;52.428;13.302;2023-03-11T16:05:46;7.00;96.80
35796;DHT22;21916;52.428;13.302;2023-03-11T16:08:12;6.80;97.70
35796;DHT22;21916;52.428;13.302;2023-03-11T16:10:38;6.80;97.90
35796;DHT22;21916;52.428;13.302;2023-03-11T16:13:04;6.40;98.00
35796;DHT22;21916;52.428;13.302;2023-03-11T16:15:35;6.00;99.60
35796;DHT22;21916;52.428;13.302;2023-03-11T16:18:06;5.80;99.90
35796;DHT22;21916;52.428;13.302;2023-03-11T16:23:29;4.70;99.90
35796;DHT22;21916;52.428;13.302;2023-03-11T16:26:00;4.20;99.90
35796;DHT22;21916;52.428;13.302;2023-03-11T16:28:27;3.80;99.90
35796;DHT22;21916;52.428;13.302;2023-03-11T16:30:53;3.80;99.90
35796;DHT22;21916;52.428;13.302;2023-03-11T16:33:18;3.50;99.90
35796;DHT22;21916;52.428;13.302;2023-03-11T16:35:45;3.30;99.90
35796;DHT22;21916;52.428;13.302;2023-03-11T16:38:11;3.30;99.90
35796;DHT22;21916;52.428;13.302;2023-03-11T16:40:37;3.20;99.90
35796;DHT22;21916;52.428;13.302;2023-03-11T16:43:08;3.10;99.90
35796;DHT22;21916;52.428;13.302;2023-03-11T16:45:35;3.00;99.90
35796;DHT22;21916;52.428;13.302;2023-03-11T16:48:01;2.90;99.90
35796;DHT22;21916;52.428;13.302;2023-03-11T16:50:28;2.90;99.90
35796;DHT22;21916;52.428;13.302;2023-03-11T16:52:55;2.80;99.90
35796;DHT22;21916;52.428;13.302;2023-03-11T16:55:22;2.70;99.90
35796;DHT22;21916;52.428;13.302;2023-03-11T16:57:48;2.60;99.90
35796;DHT22;21916;52.428;13.302;2023-03-11T17:00:15;2.50;99.90
35796;DHT22;21916;52.428;13.302;2023-03-11T17:02:42;2.50;99.90
35796;DHT22;21916;52.428;13.302;2023-03-11T17:05:09;2.40;99.90
35796;DHT22;21916;52.428;13.302;2023-03-11T17:07:36;2.30;99.90
35796;DHT22;21916;52.428;13.302;2023-03-11T17:10:02;2.30;99.90
35796;DHT22;21916;52.428;13.302;2023-03-11T17:12:28;2.20;99.90
35796;DHT22;21916;52.428;13.302;2023-03-11T17:14:54;2.10;99.90
35796;DHT22;21916;52.428;13.302;2023-03-11T17:17:21;2.10;99.90
35796;DHT22;21916;52.428;13.302;2023-03-11T17:19:47;1.90;99.90
35796;DHT22;21916;52.428;13.302;2023-03-11T17:22:14;1.90;99.90
35796;DHT22;21916;52.428;13.302;2023-03-11T17:24:40;1.90;99.90
35796;DHT22;21916;52.428;13.302;2023-03-11T17:27:06;1.80;99.90